sensor_id;sensor_type;location;lat;lon;timestamp;pressure;altitude;pressure_sealevel;temperature;humidity
75991;BME280;64673;52.276;10.560;2023-11-18T00:01:33;101523.75;;;2.60;96.37
75991;BME280;64673;52.276;10.560;2023-11-18T00:03:59;101531.16;;;2.65;97.79
75991;BME280;64673;52.276;10.560;2023-11-18T00:06:25;101506.97;;;2.38;97.38
75991;BME280;64673;52.276;10.560;2023-11-18T00:08:50;101522.56;;;2.41;97.90
75991;BME280;64673;52.276;10.560;2023-11-18T00:11:16;101532.50;;;2.54;98.05
75991;BME280;64673;52.276;10.560;2023-11-18T00:13:41;101541.28;;;2.54;97.52
75991;BME280;64673;52.276;10.560;2023-11-18T00:16:09;101540.13;;;2.36;98.32
75991;BME280;64673;52.276;10.560;2023-11-18T00:18:39;101534.31;;;2.04;99.11
75991;BME280;64673;52.276;10.560;2023-11-18T00:21:05;101536.84;;;2.12;97.84
75991;BME280;64673;52.276;10.560;2023-11-18T00:23:30;101540.94;;;1.94;99.31
75991;BME280;64673;52.276;10.560;2023-11-18T00:25:56;101537.47;;;1.93;98.88
75991;BME280;64673;52.276;10.560;2023-11-18T00:28:21;101541.25;;;1.84;99.30
75991;BME280;64673;52.276;10.560;2023-11-18T00:30:47;101548.56;;;1.97;98.16
75991;BME280;64673;52.276;10.560;2023-11-18T00:33:12;101549.41;;;1.82;98.85
75991;BME280;64673;52.276;10.560;2023-11-18T00:35:37;101544.03;;;1.76;99.04
75991;BME280;64673;52.276;10.560;2023-11-18T00:38:03;101553.09;;;2.03;98.33
75991;BME280;64673;52.276;10.560;2023-11-18T00:40:29;101563.84;;;2.09;98.37
75991;BME280;64673;52.276;10.560;2023-11-18T00:42:55;101568.56;;;2.14;98.20
75991;BME280;64673;52.276;10.560;2023-11-18T00:45:20;101553.50;;;2.00;98.61
75991;BME280;64673;52.276;10.560;2023-11-18T00:47:46;101559.97;;;1.91;99.43
75991;BME280;64673;52.276;10.560;2023-11-18T00:50:11;101558.53;;;2.09;99.54
75991;BME280;64673;52.276;10.560;2023-11-18T00:52:38;101561.34;;;2.50;97.36
75991;BME280;64673;52.276;10.560;2023-11-18T00:55:05;101560.78;;;2.12;98.29
75991;BME280;64673;52.276;10.560;2023-11-18T00:57:31;101564.22;;;2.06;98.60
75991;BME280;64673;52.276;10.560;2023-11-18T00:59:56;101560.84;;;1.98;99.42
75991;BME280;64673;52.276;10.560;2023-11-18T01:02:23;101559.97;;;1.91;99.46
75991;BME280;64673;52.276;10.560;2023-11-18T01:04:48;101557.34;;;1.76;100.00
75991;BME280;64673;52.276;10.560;2023-11-18T01:07:14;101566.03;;;1.84;100.00
75991;BME280;64673;52.276;10.560;2023-11-18T01:09:39;101565.34;;;1.97;99.97
75991;BME280;64673;52.276;10.560;2023-11-18T01:12:06;101563.88;;;1.95;100.00
75991;BME280;64673;52.276;10.560;2023-11-18T01:14:38;101564.75;;;2.02;100.00
75991;BME280;64673;52.276;10.560;2023-11-18T01:17:07;101570.81;;;2.10;99.92
75991;BME280;64673;52.276;10.560;2023-11-18T01:19:34;101571.19;;;2.07;99.80
75991;BME280;64673;52.276;10.560;2023-11-18T01:22:00;101563.16;;;2.01;99.67
75991;BME280;64673;52.276;10.560;2023-11-18T01:24:25;101574.59;;;2.01;99.24
75991;BME280;64673;52.276;10.560;2023-11-18T01:26:50;101573.13;;;1.99;99.70
75991;BME280;64673;52.276;10.560;2023-11-18T01:29:16;101569.81;;;1.75;100.00
75991;BME280;64673;52.276;10.560;2023-11-18T01:31:41;101575.00;;;1.48;99.40
75991;BME280;64673;52.276;10.560;2023-11-18T01:34:07;101580.38;;;1.39;100.00
75991;BME280;64673;52.276;10.560;2023-11-18T01:36:33;101580.50;;;1.31;100.00
75991;BME280;64673;52.276;10.560;2023-11-18T01:38:59;101578.22;;;1.14;100.00
75991;BME280;64673;52.276;10.560;2023-11-18T01:41:25;101585.81;;;1.31;100.00
75991;BME280;64673;52.276;10.560;2023-11-18T01:43:51;101591.66;;;1.41;100.00
75991;BME280;64673;52.276;10.560;2023-11-18T01:46:16;101598.38;;;1.37;100.00
75991;BME280;64673;52.276;10.560;2023-11-18T01:48:42;101599.81;;;1.40;100.00
75991;BME280;64673;52.276;10.560;2023-11-18T01:51:08;101600.53;;;1.48;100.00
75991;BME280;64673;52.276;10.560;2023-11-18T01:53:38;101600.81;;;1.68;100.00
75991;BME280;64673;52.276;10.560;2023-11-18T01:56:05;101612.59;;;1.80;100.00
75991;BME280;64673;52.276;10.560;2023-11-18T01:58:32;101620.75;;;1.94;100.00
75991;BME280;64673;52.276;10.560;2023-11-18T02:00:58;101608.97;;;2.03;100.00
75991;BME280;64673;52.276;10.560;2023-11-18T02:03:23;101611.34;;;2.12;100.00
75991;BME280;64673;52.276;10.560;2023-11-18T02:05:52;101609.47;;;2.28;100.00
75991;BME280;64673;52.276;10.560;2023-11-18T02:08:17;101607.69;;;2.35;100.00
75991;BME280;64673;52.276;10.560;2023-11-18T02:10:57;101608.69;;;2.34;100.00
75991;BME280;64673;52.276;10.560;2023-11-18T02:13:31;101616.56;;;2.42;100.00
75991;BME280;64673;52.276;10.560;2023-11-18T02:15:58;101612.13;;;2.49;100.00
75991;BME280;64673;52.276;10.560;2023-11-18T02:18:29;101612.78;;;2.51;100.00
75991;BME280;64673;52.276;10.560;2023-11-18T02:20:56;101617.50;;;2.55;100.00
75991;BME280;64673;52.276;10.560;2023-11-18T02:23:25;101616.31;;;2.58;100.00
75991;BME280;64673;52.276;10.560;2023-11-18T02:25:54;101621.00;;;2.56;100.00
75991;BME280;64673;52.276;10.560;2023-11-18T02:28:23;101620.09;;;2.70;100.00
75991;BME280;64673;52.276;10.560;2023-11-18T02:30:50;101613.28;;;2.61;100.00
75991;BME280;64673;52.276;10.560;2023-11-18T02:33:26;101623.41;;;2.72;100.00
75991;BME280;64673;52.276;10.560;2023-11-18T02:35:59;101620.38;;;2.75;100.00
75991;BME280;64673;52.276;10.560;2023-11-18T02:38:29;101615.69;;;3.05;99.57
75991;BME280;64673;52.276;10.560;2023-11-18T02:40:58;101620.38;;;3.03;100.00
75991;BME280;64673;52.276;10.560;2023-11-18T02:43:24;101621.03;;;3.12;99.34
75991;BME280;64673;52.276;10.560;2023-11-18T02:45:53;101622.59;;;3.27;100.00
75991;BME280;64673;52.276;10.560;2023-11-18T02:48:20;101631.00;;;3.31;99.28
75991;BME280;64673;52.276;10.560;2023-11-18T02:50:45;101624.47;;;3.34;99.66
75991;BME280;64673;52.276;10.560;2023-11-18T02:53:11;101630.38;;;3.29;99.76
75991;BME280;64673;52.276;10.560;2023-11-18T02:55:37;101626.56;;;3.38;98.78
75991;BME280;64673;52.276;10.560;2023-11-18T02:58:02;101632.03;;;3.30;99.50
75991;BME280;64673;52.276;10.560;2023-11-18T03:00:28;101632.03;;;3.30;100.00
75991;BME280;64673;52.276;10.560;2023-11-18T03:02:55;101626.84;;;3.22;100.00
75991;BME280;64673;52.276;10.560;2023-11-18T03:05:21;101631.19;;;3.29;99.64
75991;BME280;64673;52.276;10.560;2023-11-18T03:07:47;101625.47;;;3.26;100.00
75991;BME280;64673;52.276;10.560;2023-11-18T03:10:18;101618.00;;;3.15;100.00
75991;BME280;64673;52.276;10.560;2023-11-18T03:12:50;101629.16;;;3.31;100.00
75991;BME280;64673;52.276;10.560;2023-11-18T03:15:17;101625.53;;;3.39;99.55
75991;BME280;64673;52.276;10.560;2023-11-18T03:17:46;101628.06;;;3.47;97.88
75991;BME280;64673;52.276;10.560;2023-11-18T03:20:14;101626.44;;;3.53;97.76
75991;BME280;64673;52.276;10.560;2023-11-18T03:22:44;101621.53;;;3.56;98.48
75991;BME280;64673;52.276;10.560;2023-11-18T03:25:10;101627.25;;;3.53;98.65
75991;BME280;64673;52.276;10.560;2023-11-18T03:27:36;101634.22;;;3.48;97.91
75991;BME280;64673;52.276;10.560;2023-11-18T03:30:01;101626.44;;;3.53;98.06
75991;BME280;64673;52.276;10.560;2023-11-18T03:32:28;101630.09;;;3.52;97.78
75991;BME280;64673;52.276;10.560;2023-11-18T03:34:53;101627.25;;;3.53;98.42
75991;BME280;64673;52.276;10.560;2023-11-18T03:37:19;101628.88;;;3.48;98.46
75991;BME280;64673;52.276;10.560;2023-11-18T03:39:48;101626.22;;;3.48;98.53
75991;BME280;64673;52.276;10.560;2023-11-18T03:42:13;101627.41;;;3.45;98.15
75991;BME280;64673;52.276;10.560;2023-11-18T03:44:39;101629.66;;;3.42;99.39
75991;BME280;64673;52.276;10.560;2023-11-18T03:47:05;101626.34;;;3.40;99.62
75991;BME280;64673;52.276;10.560;2023-11-18T03:49:32;101622.59;;;3.27;100.00
75991;BME280;64673;52.276;10.560;2023-11-18T03:51:57;101627.88;;;3.21;100.00
75991;BME280;64673;52.276;10.560;2023-11-18T03:54:22;101627.00;;;3.14;100.00
75991;BME280;64673;52.276;10.560;2023-11-18T03:56:48;101620.88;;;3.20;100.00
75991;BME280;64673;52.276;10.560;2023-11-18T03:59:13;101618.38;;;3.12;100.00
75991;BME280;64673;52.276;10.560;2023-11-18T04:01:38;101620.03;;;3.13;100.00
75991;BME280;64673;52.276;10.560;2023-11-18T04:04:06;101622.03;;;3.04;100.00
75991;BME280;64673;52.276;10.560;2023-11-18T04:06:31;101606.72;;;2.85;100.00
75991;BME280;64673;52.276;10.560;2023-11-18T04:08:56;101618.19;;;2.85;100.00
75991;BME280;64673;52.276;10.560;2023-11-18T04:11:22;101611.44;;;2.89;100.00
75991;BME280;64673;52.276;10.560;2023-11-18T04:13:47;101619.22;;;2.84;100.00
75991;BME280;64673;52.276;10.560;2023-11-18T04:16:13;101616.06;;;2.74;100.00
75991;BME280;64673;52.276;10.560;2023-11-18T04:18:41;101612.50;;;2.67;100.00
75991;BME280;64673;52.276;10.560;2023-11-18T04:21:07;101616.66;;;2.76;100.00
75991;BME280;64673;52.276;10.560;2023-11-18T04:23:37;101625.81;;;2.67;100.00
75991;BME280;64673;52.276;10.560;2023-11-18T04:26:03;101623.22;;;2.74;100.00
75991;BME280;64673;52.276;10.560;2023-11-18T04:28:29;101632.47;;;2.78;100.00
75991;BME280;64673;52.276;10.560;2023-11-18T04:30:55;101626.22;;;2.64;100.00
75991;BME280;64673;52.276;10.560;2023-11-18T04:33:20;101622.00;;;2.55;100.00
75991;BME280;64673;52.276;10.560;2023-11-18T04:35:46;101620.38;;;2.54;100.00
75991;BME280;64673;52.276;10.560;2023-11-18T04:38:12;101623.34;;;2.44;100.00
75991;BME280;64673;52.276;10.560;2023-11-18T04:40:37;101629.50;;;2.45;100.00
75991;BME280;64673;52.276;10.560;2023-11-18T04:43:04;101620.81;;;2.36;100.00
75991;BME280;64673;52.276;10.560;2023-11-18T04:45:30;101634.38;;;2.20;100.00
75991;BME280;64673;52.276;10.560;2023-11-18T04:47:56;101631.00;;;2.11;100.00
75991;BME280;64673;52.276;10.560;2023-11-18T04:50:22;101622.75;;;2.06;100.00
75991;BME280;64673;52.276;10.560;2023-11-18T04:52:48;101625.44;;;1.92;100.00
75991;BME280;64673;52.276;10.560;2023-11-18T04:55:13;101626.53;;;1.97;100.00
75991;BME280;64673;52.276;10.560;2023-11-18T04:57:39;101624.41;;;1.93;100.00
75991;BME280;64673;52.276;10.560;2023-11-18T05:00:05;101621.69;;;1.86;100.00
75991;BME280;64673;52.276;10.560;2023-11-18T05:02:39;101614.13;;;1.68;100.00
75991;BME280;64673;52.276;10.560;2023-11-18T05:05:04;101613.66;;;1.65;100.00
75991;BME280;64673;52.276;10.560;2023-11-18T05:07:33;101601.72;;;1.61;100.00
75991;BME280;64673;52.276;10.560;2023-11-18T05:09:58;101596.25;;;1.48;100.00
75991;BME280;64673;52.276;10.560;2023-11-18T05:12:24;101597.88;;;1.48;100.00
75991;BME280;64673;52.276;10.560;2023-11-18T05:14:49;101600.28;;;1.43;100.00
75991;BME280;64673;52.276;10.560;2023-11-18T05:17:15;101596.81;;;1.43;100.00
75991;BME280;64673;52.276;10.560;2023-11-18T05:19:41;101610.44;;;1.40;100.00
75991;BME280;64673;52.276;10.560;2023-11-18T05:22:08;101607.06;;;1.46;100.00
75991;BME280;64673;52.276;10.560;2023-11-18T05:24:33;101596.50;;;1.53;100.00
75991;BME280;64673;52.276;10.560;2023-11-18T05:26:58;101607.31;;;1.51;100.00
75991;BME280;64673;52.276;10.560;2023-11-18T05:29:29;101598.81;;;1.56;100.00
75991;BME280;64673;52.276;10.560;2023-11-18T05:31:54;101589.59;;;1.73;100.00
75991;BME280;64673;52.276;10.560;2023-11-18T05:34:20;101594.03;;;1.66;100.00
75991;BME280;64673;52.276;10.560;2023-11-18T05:36:46;101591.63;;;1.71;100.00
75991;BME280;64673;52.276;10.560;2023-11-18T05:39:12;101574.56;;;1.80;100.00
75991;BME280;64673;52.276;10.560;2023-11-18T05:41:40;101572.09;;;1.78;100.00
75991;BME280;64673;52.276;10.560;2023-11-18T05:44:06;101578.09;;;1.66;100.00
75991;BME280;64673;52.276;10.560;2023-11-18T05:46:34;101573.94;;;1.63;100.00
75991;BME280;64673;52.276;10.560;2023-11-18T05:49:03;101579.34;;;1.70;100.00
75991;BME280;64673;52.276;10.560;2023-11-18T05:51:32;101571.88;;;1.59;100.00
75991;BME280;64673;52.276;10.560;2023-11-18T05:53:58;101579.72;;;1.67;100.00
75991;BME280;64673;52.276;10.560;2023-11-18T05:56:23;101577.63;;;1.62;100.00
75991;BME280;64673;52.276;10.560;2023-11-18T05:58:50;101577.97;;;1.59;100.00
75991;BME280;64673;52.276;10.560;2023-11-18T06:01:16;101566.69;;;1.72;100.00
75991;BME280;64673;52.276;10.560;2023-11-18T06:03:43;101584.66;;;1.70;100.00
75991;BME280;64673;52.276;10.560;2023-11-18T06:06:10;101588.66;;;1.80;100.00
75991;BME280;64673;52.276;10.560;2023-11-18T06:08:36;101571.63;;;1.75;100.00
75991;BME280;64673;52.276;10.560;2023-11-18T06:11:02;101569.63;;;1.77;100.00
75991;BME280;64673;52.276;10.560;2023-11-18T06:13:44;101580.97;;;1.86;100.00
75991;BME280;64673;52.276;10.560;2023-11-18T06:16:14;101583.97;;;1.97;100.00
75991;BME280;64673;52.276;10.560;2023-11-18T06:18:41;101560.88;;;1.83;100.00
75991;BME280;64673;52.276;10.560;2023-11-18T06:21:10;101572.00;;;1.72;100.00
75991;BME280;64673;52.276;10.560;2023-11-18T06:23:36;101567.91;;;1.69;100.00
75991;BME280;64673;52.276;10.560;2023-11-18T06:26:01;101562.13;;;1.66;100.00
75991;BME280;64673;52.276;10.560;2023-11-18T06:28:27;101581.38;;;1.68;100.00
75991;BME280;64673;52.276;10.560;2023-11-18T06:30:53;101580.56;;;1.53;100.00
75991;BME280;64673;52.276;10.560;2023-11-18T06:33:18;101580.63;;;1.59;100.00
75991;BME280;64673;52.276;10.560;2023-11-18T06:35:48;101575.94;;;1.91;100.00
75991;BME280;64673;52.276;10.560;2023-11-18T06:38:13;101575.59;;;1.79;100.00
75991;BME280;64673;52.276;10.560;2023-11-18T06:40:40;101592.38;;;1.65;100.00
75991;BME280;64673;52.276;10.560;2023-11-18T06:43:05;101593.13;;;1.59;100.00
75991;BME280;64673;52.276;10.560;2023-11-18T06:45:36;101581.56;;;1.52;100.00
75991;BME280;64673;52.276;10.560;2023-11-18T06:48:03;101593.78;;;1.46;100.00
75991;BME280;64673;52.276;10.560;2023-11-18T06:50:30;101587.75;;;1.37;100.00
75991;BME280;64673;52.276;10.560;2023-11-18T06:52:57;101587.75;;;1.37;100.00
75991;BME280;64673;52.276;10.560;2023-11-18T06:55:22;101586.06;;;1.22;100.00
75991;BME280;64673;52.276;10.560;2023-11-18T06:57:48;101588.94;;;1.35;100.00
75991;BME280;64673;52.276;10.560;2023-11-18T07:00:17;101587.91;;;1.21;100.00
75991;BME280;64673;52.276;10.560;2023-11-18T07:02:43;101589.38;;;1.24;100.00
75991;BME280;64673;52.276;10.560;2023-11-18T07:05:08;101600.63;;;1.11;100.00
75991;BME280;64673;52.276;10.560;2023-11-18T07:07:34;101607.59;;;1.12;100.00
75991;BME280;64673;52.276;10.560;2023-11-18T07:09:59;101613.28;;;1.09;100.00
75991;BME280;64673;52.276;10.560;2023-11-18T07:12:25;101616.03;;;1.01;100.00
75991;BME280;64673;52.276;10.560;2023-11-18T07:14:50;101618.22;;;1.12;100.00
75991;BME280;64673;52.276;10.560;2023-11-18T07:17:16;101616.31;;;1.21;100.00
75991;BME280;64673;52.276;10.560;2023-11-18T07:19:44;101625.56;;;1.10;100.00
75991;BME280;64673;52.276;10.560;2023-11-18T07:22:10;101613.28;;;1.09;100.00
75991;BME280;64673;52.276;10.560;2023-11-18T07:24:37;101618.94;;;1.06;100.00
75991;BME280;64673;52.276;10.560;2023-11-18T07:27:03;101629.88;;;1.11;100.00
75991;BME280;64673;52.276;10.560;2023-11-18T07:29:30;101622.97;;;1.02;100.00
75991;BME280;64673;52.276;10.560;2023-11-18T07:31:57;101628.88;;;1.12;100.00
75991;BME280;64673;52.276;10.560;2023-11-18T07:34:23;101620.16;;;1.33;100.00
75991;BME280;64673;52.276;10.560;2023-11-18T07:36:49;101622.28;;;1.37;100.00
75991;BME280;64673;52.276;10.560;2023-11-18T07:39:15;101636.19;;;1.39;100.00
75991;BME280;64673;52.276;10.560;2023-11-18T07:41:49;101634.75;;;1.52;100.00
75991;BME280;64673;52.276;10.560;2023-11-18T07:44:15;101627.78;;;1.51;100.00
75991;BME280;64673;52.276;10.560;2023-11-18T07:46:41;101623.53;;;1.71;100.00
75991;BME280;64673;52.276;10.560;2023-11-18T07:49:07;101625.19;;;1.87;100.00
75991;BME280;64673;52.276;10.560;2023-11-18T07:51:33;101632.94;;;2.03;100.00
75991;BME280;64673;52.276;10.560;2023-11-18T07:54:00;101626.94;;;2.15;100.00
75991;BME280;64673;52.276;10.560;2023-11-18T07:56:25;101633.53;;;2.19;100.00
75991;BME280;64673;52.276;10.560;2023-11-18T07:58:52;101647.00;;;2.33;100.00
75991;BME280;64673;52.276;10.560;2023-11-18T08:01:17;101648.94;;;2.45;100.00
75991;BME280;64673;52.276;10.560;2023-11-18T08:03:43;101641.03;;;2.52;100.00
75991;BME280;64673;52.276;10.560;2023-11-18T08:06:10;101653.28;;;2.68;100.00
75991;BME280;64673;52.276;10.560;2023-11-18T08:08:37;101649.66;;;2.75;100.00
75991;BME280;64673;52.276;10.560;2023-11-18T08:11:06;101642.28;;;2.77;100.00
75991;BME280;64673;52.276;10.560;2023-11-18T08:13:31;101651.50;;;2.96;100.00
75991;BME280;64673;52.276;10.560;2023-11-18T08:15:57;101648.88;;;3.03;100.00
75991;BME280;64673;52.276;10.560;2023-11-18T08:18:26;101649.88;;;3.02;100.00
75991;BME280;64673;52.276;10.560;2023-11-18T08:20:52;101661.03;;;3.12;100.00
75991;BME280;64673;52.276;10.560;2023-11-18T08:23:18;101656.97;;;3.16;100.00
75991;BME280;64673;52.276;10.560;2023-11-18T08:25:44;101660.31;;;3.24;100.00
75991;BME280;64673;52.276;10.560;2023-11-18T08:28:11;101646.00;;;3.32;100.00
75991;BME280;64673;52.276;10.560;2023-11-18T08:30:37;101659.16;;;3.40;100.00
75991;BME280;64673;52.276;10.560;2023-11-18T08:33:03;101650.41;;;3.46;100.00
75991;BME280;64673;52.276;10.560;2023-11-18T08:35:35;101644.53;;;3.57;100.00
75991;BME280;64673;52.276;10.560;2023-11-18T08:38:00;101644.78;;;3.69;100.00
75991;BME280;64673;52.276;10.560;2023-11-18T08:40:26;101635.53;;;3.72;100.00
75991;BME280;64673;52.276;10.560;2023-11-18T08:42:53;101630.66;;;3.75;100.00
75991;BME280;64673;52.276;10.560;2023-11-18T08:45:24;101633.75;;;3.79;100.00
75991;BME280;64673;52.276;10.560;2023-11-18T08:47:55;101631.34;;;3.90;100.00
75991;BME280;64673;52.276;10.560;2023-11-18T08:50:21;101621.25;;;3.92;100.00
75991;BME280;64673;52.276;10.560;2023-11-18T08:52:49;101617.19;;;4.03;100.00
75991;BME280;64673;52.276;10.560;2023-11-18T08:55:18;101625.47;;;4.21;100.00
75991;BME280;64673;52.276;10.560;2023-11-18T08:57:48;101604.94;;;4.22;100.00
75991;BME280;64673;52.276;10.560;2023-11-18T09:00:27;101610.09;;;4.36;100.00
75991;BME280;64673;52.276;10.560;2023-11-18T09:03:14;101611.94;;;4.36;100.00
75991;BME280;64673;52.276;10.560;2023-11-18T09:05:56;101616.50;;;4.49;100.00
75991;BME280;64673;52.276;10.560;2023-11-18T09:08:42;101609.53;;;4.54;100.00
75991;BME280;64673;52.276;10.560;2023-11-18T09:11:12;101627.59;;;4.52;100.00
75991;BME280;64673;52.276;10.560;2023-11-18T09:13:46;101620.63;;;4.45;100.00
75991;BME280;64673;52.276;10.560;2023-11-18T09:16:19;101625.31;;;4.43;100.00
75991;BME280;64673;52.276;10.560;2023-11-18T09:18:51;101627.56;;;4.46;100.00
75991;BME280;64673;52.276;10.560;2023-11-18T09:21:16;101627.16;;;4.49;100.00
75991;BME280;64673;52.276;10.560;2023-11-18T09:23:45;101628.44;;;4.53;100.00
75991;BME280;64673;52.276;10.560;2023-11-18T09:26:13;101625.16;;;4.64;100.00
75991;BME280;64673;52.276;10.560;2023-11-18T09:28:39;101623.91;;;4.73;100.00
75991;BME280;64673;52.276;10.560;2023-11-18T09:31:05;101610.53;;;4.79;100.00
75991;BME280;64673;52.276;10.560;2023-11-18T09:33:33;101615.69;;;4.88;100.00
75991;BME280;64673;52.276;10.560;2023-11-18T09:40:53;101607.03;;;5.19;100.00
75991;BME280;64673;52.276;10.560;2023-11-18T09:43:19;101600.03;;;5.18;100.00
75991;BME280;64673;52.276;10.560;2023-11-18T09:45:47;101598.41;;;5.17;100.00
75991;BME280;64673;52.276;10.560;2023-11-18T09:48:17;101597.97;;;5.20;100.00
75991;BME280;64673;52.276;10.560;2023-11-18T09:50:44;101606.22;;;5.18;100.00
75991;BME280;64673;52.276;10.560;2023-11-18T09:53:13;101599.84;;;5.12;100.00
75991;BME280;64673;52.276;10.560;2023-11-18T09:55:52;101602.72;;;5.11;99.95
75991;BME280;64673;52.276;10.560;2023-11-18T09:58:25;101597.56;;;5.09;99.66
75991;BME280;64673;52.276;10.560;2023-11-18T10:00:58;101598.00;;;5.06;99.31
75991;BME280;64673;52.276;10.560;2023-11-18T10:03:28;101596.75;;;5.15;100.00
75991;BME280;64673;52.276;10.560;2023-11-18T10:05:55;101594.88;;;5.23;99.74
75991;BME280;64673;52.276;10.560;2023-11-18T10:08:21;101595.09;;;5.28;99.86
75991;BME280;64673;52.276;10.560;2023-11-18T10:10:51;101596.09;;;5.40;98.77
75991;BME280;64673;52.276;10.560;2023-11-18T10:13:16;101599.78;;;5.32;99.19
75991;BME280;64673;52.276;10.560;2023-11-18T10:15:50;101601.22;;;5.41;98.91
75991;BME280;64673;52.276;10.560;2023-11-18T10:18:17;101609.25;;;5.35;98.31
75991;BME280;64673;52.276;10.560;2023-11-18T10:20:48;101600.22;;;5.36;97.88
75991;BME280;64673;52.276;10.560;2023-11-18T10:23:21;101595.66;;;5.43;97.41
75991;BME280;64673;52.276;10.560;2023-11-18T10:25:48;101589.06;;;5.45;97.50
75991;BME280;64673;52.276;10.560;2023-11-18T10:31:18;101575.66;;;5.59;96.86
75991;BME280;64673;52.276;10.560;2023-11-18T10:33:44;101570.28;;;5.59;96.87
75991;BME280;64673;52.276;10.560;2023-11-18T10:36:19;101566.59;;;5.60;96.33
75991;BME280;64673;52.276;10.560;2023-11-18T10:38:50;101561.63;;;5.63;95.71
75991;BME280;64673;52.276;10.560;2023-11-18T10:41:17;101557.28;;;5.69;95.74
75991;BME280;64673;52.276;10.560;2023-11-18T10:43:43;101553.78;;;5.68;95.55
75991;BME280;64673;52.276;10.560;2023-11-18T10:46:11;101549.03;;;5.70;94.97
75991;BME280;64673;52.276;10.560;2023-11-18T10:48:50;101538.50;;;5.75;95.30
75991;BME280;64673;52.276;10.560;2023-11-18T10:51:17;101536.41;;;5.91;95.39
75991;BME280;64673;52.276;10.560;2023-11-18T10:53:47;101530.59;;;6.00;95.04
75991;BME280;64673;52.276;10.560;2023-11-18T10:56:22;101532.31;;;6.19;95.08
75991;BME280;64673;52.276;10.560;2023-11-18T10:59:04;101536.78;;;6.25;93.88
75991;BME280;64673;52.276;10.560;2023-11-18T11:01:33;101536.75;;;6.32;93.34
75991;BME280;64673;52.276;10.560;2023-11-18T11:03:59;101526.59;;;6.41;93.71
75991;BME280;64673;52.276;10.560;2023-11-18T11:06:30;101528.00;;;6.43;91.72
75991;BME280;64673;52.276;10.560;2023-11-18T11:08:57;101522.38;;;6.51;91.43
75991;BME280;64673;52.276;10.560;2023-11-18T11:11:28;101520.34;;;6.47;90.96
75991;BME280;64673;52.276;10.560;2023-11-18T11:14:03;101519.59;;;6.40;92.02
75991;BME280;64673;52.276;10.560;2023-11-18T11:16:36;101511.47;;;6.46;91.85
75991;BME280;64673;52.276;10.560;2023-11-18T11:19:04;101507.66;;;6.60;91.66
75991;BME280;64673;52.276;10.560;2023-11-18T11:21:37;101504.53;;;6.64;91.49
75991;BME280;64673;52.276;10.560;2023-11-18T11:24:20;101500.88;;;6.58;89.87
75991;BME280;64673;52.276;10.560;2023-11-18T11:27:10;101494.09;;;6.55;91.09
75991;BME280;64673;52.276;10.560;2023-11-18T11:29:51;101485.59;;;6.58;91.12
75991;BME280;64673;52.276;10.560;2023-11-18T11:32:35;101488.38;;;6.70;91.21
75991;BME280;64673;52.276;10.560;2023-11-18T11:35:07;101479.75;;;6.68;90.90
75991;BME280;64673;52.276;10.560;2023-11-18T11:37:43;101471.03;;;6.73;90.62
75991;BME280;64673;52.276;10.560;2023-11-18T11:40:09;101475.59;;;6.72;90.48
75991;BME280;64673;52.276;10.560;2023-11-18T11:42:38;101477.44;;;6.72;90.56
75991;BME280;64673;52.276;10.560;2023-11-18T11:45:06;101475.81;;;6.71;90.50
75991;BME280;64673;52.276;10.560;2023-11-18T11:47:47;101463.44;;;6.70;90.93
75991;BME280;64673;52.276;10.560;2023-11-18T11:50:22;101470.69;;;6.87;89.89
75991;BME280;64673;52.276;10.560;2023-11-18T11:53:04;101470.91;;;6.86;90.50
75991;BME280;64673;52.276;10.560;2023-11-18T11:55:45;101475.50;;;6.79;90.38
75991;BME280;64673;52.276;10.560;2023-11-18T12:00:52;101478.75;;;6.87;90.23
75991;BME280;64673;52.276;10.560;2023-11-18T12:03:21;101477.25;;;6.91;91.05
75991;BME280;64673;52.276;10.560;2023-11-18T12:05:49;101476.72;;;6.83;90.68
75991;BME280;64673;52.276;10.560;2023-11-18T12:08:16;101464.78;;;6.79;90.37
75991;BME280;64673;52.276;10.560;2023-11-18T12:10:50;101457.28;;;6.87;89.29
75991;BME280;64673;52.276;10.560;2023-11-18T12:13:17;101443.28;;;6.85;90.21
75991;BME280;64673;52.276;10.560;2023-11-18T12:15:54;101441.84;;;7.01;89.08
75991;BME280;64673;52.276;10.560;2023-11-18T12:18:22;101421.75;;;6.92;89.66
75991;BME280;64673;52.276;10.560;2023-11-18T12:20:49;101409.31;;;6.97;88.84
75991;BME280;64673;52.276;10.560;2023-11-18T12:23:21;101419.56;;;7.01;88.85
75991;BME280;64673;52.276;10.560;2023-11-18T12:25:54;101410.56;;;6.95;89.39
75991;BME280;64673;52.276;10.560;2023-11-18T12:28:30;101403.94;;;6.97;89.58
75991;BME280;64673;52.276;10.560;2023-11-18T12:30:59;101399.47;;;6.91;88.46
75991;BME280;64673;52.276;10.560;2023-11-18T12:42:04;101396.06;;;6.84;89.52
75991;BME280;64673;52.276;10.560;2023-11-18T12:44:36;101406.41;;;6.81;89.78
75991;BME280;64673;52.276;10.560;2023-11-18T12:47:05;101400.44;;;6.79;90.17
75991;BME280;64673;52.276;10.560;2023-11-18T12:49:41;101405.06;;;6.72;90.41
75991;BME280;64673;52.276;10.560;2023-11-18T12:52:11;101400.09;;;6.75;90.10
75991;BME280;64673;52.276;10.560;2023-11-18T12:54:40;101405.88;;;6.72;89.90
75991;BME280;64673;52.276;10.560;2023-11-18T12:57:09;101415.34;;;6.75;88.83
75991;BME280;64673;52.276;10.560;2023-11-18T12:59:36;101407.31;;;6.75;89.87
75991;BME280;64673;52.276;10.560;2023-11-18T13:02:07;101402.47;;;6.83;89.35
75991;BME280;64673;52.276;10.560;2023-11-18T13:04:33;101390.41;;;6.74;89.23
75991;BME280;64673;52.276;10.560;2023-11-18T13:07:05;101395.53;;;6.76;89.37